createdAt,value
2023-01-27T00:02:15.948Z,-67
2023-01-27T00:04:44.554Z,-67
2023-01-27T00:07:13.217Z,-68
2023-01-27T00:09:42.734Z,-67
2023-01-27T00:12:43.199Z,-67
2023-01-27T00:15:14.026Z,-67
2023-01-27T00:17:43.033Z,-67
2023-01-27T00:20:12.588Z,-67
2023-01-27T00:22:58.506Z,-68
2023-01-27T00:25:27.144Z,-67
2023-01-27T00:27:55.757Z,-67
2023-01-27T00:30:24.376Z,-67
2023-01-27T00:33:10.102Z,-67
2023-01-27T00:35:38.740Z,-67
2023-01-27T00:38:07.306Z,-67
2023-01-27T00:40:35.945Z,-67
2023-01-27T00:43:04.578Z,-67
2023-01-27T00:45:52.645Z,-68
2023-01-27T00:48:21.244Z,-68
2023-01-27T00:50:49.852Z,-67
2023-01-27T00:53:18.608Z,-67
2023-01-27T00:55:48.514Z,-68
2023-01-27T00:58:17.228Z,-68
2023-01-27T01:00:46.626Z,-67
2023-01-27T01:03:15.448Z,-67
2023-01-27T01:05:44.015Z,-67
2023-01-27T01:08:12.714Z,-67
2023-01-27T01:10:41.692Z,-68
2023-01-27T01:13:12.022Z,-67
2023-01-27T01:15:41.119Z,-68
2023-01-27T01:18:11.636Z,-67
2023-01-27T01:20:44.457Z,-67
2023-01-27T01:23:14.028Z,-67
2023-01-27T01:25:43.446Z,-67
2023-01-27T01:28:12.385Z,-68
2023-01-27T01:30:41.022Z,-67
2023-01-27T01:33:09.646Z,-67
2023-01-27T01:35:40.270Z,-67
2023-01-27T01:38:08.886Z,-68
2023-01-27T01:40:45.557Z,-68
2023-01-27T01:43:17.530Z,-67
2023-01-27T01:46:00.560Z,-67
2023-01-27T01:48:57.447Z,-68
2023-01-27T01:51:35.986Z,-68
2023-01-27T01:54:23.105Z,-68
2023-01-27T01:57:06.811Z,-68
2023-01-27T01:59:50.311Z,-68
2023-01-27T02:02:24.431Z,-68
2023-01-27T02:04:57.773Z,-68
2023-01-27T02:07:41.255Z,-67
2023-01-27T02:10:09.976Z,-68
2023-01-27T02:12:38.610Z,-68
2023-01-27T02:15:08.710Z,-68
2023-01-27T02:17:37.622Z,-68
2023-01-27T02:20:45.164Z,-67
2023-01-27T02:23:37.199Z,-67
2023-01-27T02:26:05.875Z,-67
2023-01-27T02:28:34.507Z,-67
2023-01-27T02:31:03.242Z,-67
2023-01-27T02:33:31.934Z,-67
2023-01-27T02:36:15.580Z,-67
2023-01-27T02:38:54.157Z,-67
2023-01-27T02:41:47.898Z,-68
2023-01-27T02:44:16.591Z,-68
2023-01-27T02:46:48.335Z,-68
2023-01-27T02:49:17.345Z,-68
2023-01-27T02:51:45.950Z,-67
2023-01-27T02:54:14.641Z,-67
2023-01-27T02:56:43.374Z,-67
2023-01-27T02:59:11.907Z,-67
2023-01-27T03:01:40.632Z,-68
2023-01-27T03:04:12.012Z,-67
2023-01-27T03:06:40.798Z,-68
2023-01-27T03:09:09.685Z,-68
2023-01-27T03:11:55.456Z,-68
2023-01-27T03:14:37.539Z,-68
2023-01-27T03:17:23.555Z,-67
2023-01-27T03:19:53.449Z,-68
2023-01-27T03:22:22.063Z,-67
2023-01-27T03:24:50.606Z,-67
2023-01-27T03:27:19.293Z,-67
2023-01-27T03:29:57.011Z,-67
2023-01-27T03:32:31.593Z,-67
2023-01-27T03:35:01.570Z,-68
2023-01-27T03:37:47.631Z,-67
2023-01-27T03:40:34.097Z,-67
2023-01-27T03:43:20.344Z,-81
2023-01-27T03:46:10.127Z,-81
2023-01-27T03:48:38.727Z,-82
2023-01-27T03:51:09.541Z,-81
2023-01-27T03:53:38.515Z,-80
2023-01-27T03:56:07.461Z,-79
2023-01-27T03:58:38.754Z,-79
2023-01-27T04:01:14.487Z,-79
2023-01-27T04:04:01.323Z,-79
2023-01-27T04:06:50.640Z,-79
2023-01-27T04:09:31.817Z,-79
2023-01-27T04:12:02.356Z,-79
2023-01-27T04:14:38.264Z,-79
2023-01-27T04:17:14.172Z,-79
2023-01-27T04:19:42.944Z,-79
2023-01-27T04:22:13.950Z,-79
2023-01-27T04:24:42.518Z,-79
2023-01-27T04:27:16.750Z,-79
2023-01-27T04:29:45.156Z,-79
2023-01-27T04:32:14.747Z,-79
2023-01-27T04:34:43.624Z,-79
2023-01-27T04:37:12.350Z,-79
2023-01-27T04:39:41.787Z,-79
2023-01-27T04:42:10.199Z,-79
2023-01-27T04:44:38.627Z,-79
2023-01-27T04:47:07.030Z,-79
2023-01-27T04:49:35.462Z,-79
2023-01-27T04:52:03.879Z,-79
2023-01-27T04:54:32.341Z,-81
2023-01-27T04:57:03.957Z,-80
2023-01-27T04:59:32.408Z,-80
2023-01-27T05:02:00.952Z,-80
2023-01-27T05:04:29.445Z,-80
2023-01-27T05:06:57.862Z,-80
2023-01-27T05:09:26.575Z,-80
2023-01-27T05:11:55.013Z,-80
2023-01-27T05:14:24.473Z,-80
2023-01-27T05:16:53.020Z,-80
2023-01-27T05:19:21.498Z,-80
2023-01-27T05:21:49.937Z,-80
2023-01-27T05:24:18.364Z,-80
2023-01-27T05:26:46.838Z,-80
2023-01-27T05:29:15.504Z,-80
2023-01-27T05:31:43.954Z,-80
2023-01-27T05:34:12.415Z,-80
2023-01-27T05:36:40.817Z,-80
2023-01-27T05:39:11.416Z,-80
2023-01-27T05:41:40.042Z,-80
2023-01-27T05:44:13.552Z,-79
2023-01-27T05:46:42.638Z,-80
2023-01-27T05:49:11.070Z,-80
2023-01-27T05:51:41.080Z,-80
2023-01-27T05:54:10.096Z,-80
2023-01-27T05:56:39.246Z,-80
2023-01-27T05:59:08.528Z,-79
2023-01-27T06:01:37.676Z,-80
2023-01-27T06:04:06.680Z,-80
2023-01-27T06:06:35.459Z,-80
2023-01-27T06:09:03.960Z,-80
2023-01-27T06:11:32.536Z,-80
2023-01-27T06:14:01.109Z,-80
2023-01-27T06:16:29.601Z,-80
2023-01-27T06:18:58.711Z,-80
2023-01-27T06:21:27.271Z,-80
2023-01-27T06:23:56.066Z,-80
2023-01-27T06:26:24.749Z,-80
2023-01-27T06:28:53.187Z,-80
2023-01-27T06:31:23.298Z,-80
2023-01-27T06:33:52.767Z,-80
2023-01-27T06:36:23.992Z,-80
2023-01-27T06:38:56.071Z,-80
2023-01-27T06:41:24.906Z,-80
2023-01-27T06:43:58.279Z,-79
2023-01-27T06:46:26.866Z,-80
2023-01-27T06:48:55.532Z,-80
2023-01-27T06:51:24.080Z,-80
2023-01-27T06:53:52.489Z,-80
2023-01-27T06:56:21.048Z,-80
2023-01-27T06:58:49.645Z,-81
2023-01-27T07:01:18.408Z,-80
2023-01-27T07:03:46.853Z,-80
2023-01-27T07:06:16.260Z,-80
2023-01-27T07:08:46.997Z,-80
2023-01-27T07:11:15.703Z,-80
2023-01-27T07:13:44.385Z,-80
2023-01-27T07:16:12.832Z,-81
2023-01-27T07:18:41.258Z,-81
2023-01-27T07:21:09.620Z,-81
2023-01-27T07:23:37.996Z,-81
2023-01-27T07:26:19.218Z,-80
2023-01-27T07:28:51.945Z,-80
2023-01-27T07:31:20.499Z,-79
2023-01-27T07:33:49.149Z,-80
2023-01-27T07:36:17.605Z,-80
2023-01-27T07:38:45.991Z,-80
2023-01-27T07:41:14.654Z,-80
2023-01-27T07:43:43.163Z,-80
2023-01-27T07:46:11.590Z,-80
2023-01-27T07:48:40.063Z,-80
2023-01-27T07:51:12.334Z,-81
2023-01-27T07:53:41.214Z,-80
2023-01-27T07:56:11.993Z,-80
2023-01-27T07:58:41.036Z,-81
2023-01-27T08:01:14.254Z,-80
2023-01-27T08:03:42.692Z,-80
2023-01-27T08:06:12.903Z,-80
2023-01-27T08:08:41.721Z,-80
2023-01-27T08:11:14.025Z,-80
2023-01-27T08:13:42.541Z,-80
2023-01-27T08:16:15.320Z,-80
2023-01-27T08:18:44.173Z,-80
2023-01-27T08:21:14.253Z,-80
2023-01-27T08:23:42.776Z,-80
2023-01-27T08:26:11.235Z,-80
2023-01-27T08:28:41.239Z,-80
2023-01-27T08:31:16.220Z,-80
2023-01-27T08:33:47.518Z,-81
2023-01-27T08:36:18.430Z,-80
2023-01-27T08:38:49.259Z,-81
2023-01-27T08:41:26.632Z,-81
2023-01-27T08:43:56.396Z,-80
2023-01-27T08:46:25.143Z,-80
2023-01-27T08:48:53.627Z,-80
2023-01-27T08:51:22.052Z,-80
2023-01-27T08:53:50.492Z,-80
2023-01-27T08:56:18.940Z,-81
2023-01-27T08:58:48.582Z,-80
2023-01-27T09:01:17.735Z,-80
2023-01-27T09:03:46.615Z,-80
2023-01-27T09:06:15.486Z,-80
2023-01-27T09:08:44.798Z,-81
2023-01-27T09:11:16.794Z,-80
2023-01-27T09:13:45.651Z,-80
2023-01-27T09:16:14.073Z,-80
2023-01-27T09:18:42.480Z,-80
2023-01-27T09:21:11.624Z,-80
2023-01-27T09:23:40.016Z,-80
2023-01-27T09:26:08.399Z,-81
2023-01-27T09:28:36.847Z,-81
2023-01-27T09:31:05.518Z,-81
2023-01-27T09:33:34.232Z,-81
2023-01-27T09:36:22.655Z,-81
2023-01-27T09:39:01.639Z,-81
2023-01-27T09:42:02.147Z,-80
2023-01-27T09:44:50.265Z,-67
2023-01-27T09:48:06.646Z,-67
2023-01-27T09:50:46.384Z,-69
2023-01-27T09:53:36.366Z,-67
2023-01-27T09:56:24.419Z,-67
2023-01-27T09:59:32.617Z,-67
2023-01-27T10:02:53.516Z,-67
2023-01-27T10:05:30.776Z,-66
2023-01-27T10:08:28.722Z,-67
2023-01-27T10:11:50.175Z,-69
2023-01-27T10:15:00.562Z,-69
2023-01-27T10:17:45.099Z,-69
2023-01-27T10:20:36.038Z,-69
2023-01-27T10:23:54.725Z,-67
2023-01-27T10:26:53.076Z,-69
2023-01-27T10:29:36.079Z,-69
2023-01-27T10:32:29.080Z,-67
2023-01-27T10:35:00.283Z,-67
2023-01-27T10:38:24.532Z,-67
2023-01-27T10:41:05.350Z,-67
2023-01-27T10:43:44.180Z,-68
2023-01-27T10:46:12.715Z,-67
2023-01-27T10:48:48.645Z,-67
2023-01-27T10:51:34.614Z,-67
2023-01-27T10:54:15.577Z,-67
2023-01-27T10:57:07.529Z,-67
2023-01-27T11:00:46.511Z,-67
2023-01-27T11:03:00.435Z,-67
2023-01-27T11:05:43.836Z,-67
2023-01-27T11:08:20.518Z,-67
2023-01-27T11:11:12.795Z,-67
2023-01-27T11:13:41.973Z,-67
2023-01-27T11:16:21.540Z,-67
2023-01-27T11:19:02.115Z,-67
2023-01-27T11:21:32.812Z,-67
2023-01-27T11:24:23.144Z,-67
2023-01-27T11:27:04.020Z,-67
2023-01-27T11:29:50.319Z,-67
2023-01-27T11:32:49.816Z,-67
2023-01-27T11:35:18.609Z,-67
2023-01-27T11:37:54.826Z,-67
2023-01-27T11:40:35.511Z,-67
2023-01-27T11:43:05.082Z,-67
2023-01-27T11:45:37.523Z,-67
2023-01-27T11:48:14.287Z,-67
2023-01-27T11:50:44.624Z,-67
2023-01-27T11:53:36.808Z,-67
2023-01-27T11:56:11.443Z,-67
2023-01-27T11:59:02.793Z,-67
2023-01-27T12:01:58.263Z,-67
2023-01-27T12:04:49.389Z,-67
2023-01-27T12:07:58.061Z,-69
2023-01-27T12:10:38.877Z,-67
2023-01-27T12:13:18.959Z,-67
2023-01-27T12:16:03.661Z,-67
2023-01-27T12:18:36.952Z,-67
2023-01-27T12:21:10.493Z,-67
2023-01-27T12:23:49.140Z,-67
2023-01-27T12:26:17.923Z,-67
2023-01-27T12:28:56.363Z,-67
2023-01-27T12:31:30.233Z,-66
2023-01-27T12:34:05.843Z,-67
2023-01-27T12:36:44.031Z,-67
2023-01-27T12:39:57.156Z,-67
2023-01-27T12:42:44.415Z,-67
2023-01-27T12:45:31.415Z,-67
2023-01-27T12:48:02.754Z,-67
2023-01-27T12:50:35.095Z,-67
2023-01-27T12:53:14.001Z,-67
2023-01-27T12:56:01.176Z,-67
2023-01-27T12:58:37.838Z,-67
2023-01-27T13:01:36.450Z,-67
2023-01-27T13:04:06.052Z,-67
2023-01-27T13:06:34.678Z,-67
2023-01-27T13:09:04.591Z,-67
2023-01-27T13:11:38.649Z,-67
2023-01-27T13:14:14.393Z,-67
2023-01-27T13:16:42.987Z,-67
2023-01-27T13:19:19.566Z,-67
2023-01-27T13:21:55.266Z,-67
2023-01-27T13:24:40.696Z,-67
2023-01-27T13:27:18.019Z,-67
2023-01-27T13:29:59.113Z,-67
2023-01-27T13:32:32.385Z,-67
2023-01-27T13:35:27.580Z,-67
2023-01-27T13:38:03.602Z,-67
2023-01-27T13:40:46.704Z,-67
2023-01-27T13:43:41.654Z,-68
2023-01-27T13:46:35.355Z,-67
2023-01-27T13:49:39.260Z,-67
2023-01-27T13:52:08.266Z,-67
2023-01-27T13:54:36.809Z,-67
2023-01-27T13:57:36.582Z,-67
2023-01-27T14:00:32.024Z,-67
2023-01-27T14:03:19.193Z,-67
2023-01-27T14:06:30.294Z,-67
2023-01-27T14:09:43.161Z,-68
2023-01-27T14:12:55.757Z,-67
2023-01-27T14:15:50.529Z,-67
2023-01-27T14:18:46.167Z,-68
2023-01-27T14:21:45.435Z,-67
2023-01-27T14:24:47.569Z,-67
2023-01-27T14:27:19.243Z,-67
2023-01-27T14:29:50.902Z,-67
2023-01-27T14:32:33.631Z,-67
2023-01-27T14:35:23.241Z,-67
2023-01-27T14:38:12.079Z,-67
2023-01-27T14:41:10.411Z,-67
2023-01-27T14:44:07.372Z,-67
2023-01-27T14:47:06.134Z,-67
2023-01-27T14:49:54.422Z,-67
2023-01-27T14:52:44.313Z,-67
2023-01-27T14:55:40.759Z,-67
2023-01-27T14:58:58.202Z,-67
2023-01-27T15:01:53.269Z,-67
2023-01-27T15:04:30.819Z,-67
2023-01-27T15:07:17.010Z,-67
2023-01-27T15:10:27.313Z,-67
2023-01-27T15:13:19.538Z,-67
2023-01-27T15:16:46.827Z,-67
2023-01-27T15:19:37.470Z,-68
2023-01-27T15:22:11.853Z,-67
2023-01-27T15:25:27.753Z,-67
2023-01-27T15:27:56.561Z,-67
2023-01-27T15:30:34.584Z,-67
2023-01-27T15:33:03.206Z,-67
2023-01-27T15:35:34.703Z,-67
2023-01-27T15:38:33.873Z,-67
2023-01-27T15:41:08.904Z,-67
2023-01-27T15:43:44.762Z,-67
2023-01-27T15:46:45.084Z,-64
2023-01-27T15:49:22.710Z,-64
2023-01-27T15:51:55.608Z,-66
2023-01-27T15:54:33.266Z,-65
2023-01-27T15:57:06.417Z,-65
2023-01-27T15:59:58.790Z,-66
2023-01-27T16:02:33.640Z,-66
2023-01-27T16:05:45.817Z,-65
2023-01-27T16:08:17.433Z,-66
2023-01-27T16:10:46.493Z,-66
2023-01-27T16:13:28.823Z,-64
2023-01-27T16:16:19.138Z,-64
2023-01-27T16:18:54.135Z,-64
2023-01-27T16:21:58.553Z,-64
2023-01-27T16:24:52.968Z,-64
2023-01-27T16:27:40.411Z,-64
2023-01-27T16:30:24.189Z,-64
2023-01-27T16:33:16.171Z,-64
2023-01-27T16:35:54.550Z,-64
2023-01-27T16:38:34.538Z,-64
2023-01-27T16:41:09.897Z,-63
2023-01-27T16:43:52.647Z,-64
2023-01-27T16:46:37.787Z,-64
2023-01-27T16:49:40.704Z,-63
2023-01-27T16:52:40.738Z,-64
2023-01-27T16:55:22.980Z,-64
2023-01-27T16:57:52.621Z,-63
2023-01-27T17:00:27.204Z,-64
2023-01-27T17:02:59.280Z,-64
2023-01-27T17:05:28.580Z,-64
2023-01-27T17:08:14.897Z,-64
2023-01-27T17:10:57.558Z,-64
2023-01-27T17:13:45.716Z,-64
2023-01-27T17:16:34.473Z,-64
2023-01-27T17:19:25.875Z,-64
2023-01-27T17:22:01.589Z,-64
2023-01-27T17:24:49.852Z,-65
2023-01-27T17:27:27.884Z,-64
2023-01-27T17:30:24.316Z,-64
2023-01-27T17:32:59.115Z,-64
2023-01-27T17:35:33.091Z,-64
2023-01-27T17:38:25.570Z,-64
2023-01-27T17:40:56.394Z,-63
2023-01-27T17:43:36.747Z,-63
2023-01-27T17:46:20.579Z,-64
2023-01-27T17:49:05.042Z,-64
2023-01-27T17:51:45.484Z,-64
2023-01-27T17:54:41.504Z,-64
2023-01-27T17:57:32.435Z,-64
2023-01-27T18:00:11.480Z,-63
2023-01-27T18:02:57.213Z,-64
2023-01-27T18:05:31.698Z,-64
2023-01-27T18:08:00.729Z,-64
2023-01-27T18:10:35.033Z,-64
2023-01-27T18:13:21.689Z,-64
2023-01-27T18:16:13.297Z,-64
2023-01-27T18:18:41.988Z,-64
2023-01-27T18:21:10.667Z,-64
2023-01-27T18:23:45.554Z,-64
2023-01-27T18:26:24.842Z,-64
2023-01-27T18:29:03.835Z,-64
2023-01-27T18:31:57.521Z,-64
2023-01-27T18:34:30.197Z,-64
2023-01-27T18:37:07.285Z,-64
2023-01-27T18:39:43.572Z,-64
2023-01-27T18:42:21.516Z,-64
2023-01-27T18:44:54.715Z,-64
2023-01-27T18:47:28.755Z,-64
2023-01-27T18:49:57.402Z,-64
2023-01-27T18:52:26.224Z,-64
2023-01-27T18:55:12.699Z,-63
2023-01-27T18:57:41.458Z,-64
2023-01-27T19:00:13.546Z,-64
2023-01-27T19:02:46.670Z,-64
2023-01-27T19:05:23.150Z,-64
2023-01-27T19:07:53.140Z,-64
2023-01-27T19:10:30.018Z,-64
2023-01-27T19:13:01.780Z,-64
2023-01-27T19:15:35.997Z,-64
2023-01-27T19:18:23.053Z,-64
2023-01-27T19:20:53.317Z,-64
2023-01-27T19:23:23.311Z,-64
2023-01-27T19:25:56.266Z,-64
2023-01-27T19:28:38.152Z,-64
2023-01-27T19:31:08.112Z,-64
2023-01-27T19:33:38.763Z,-64
2023-01-27T19:36:13.006Z,-64
2023-01-27T19:38:41.811Z,-64
2023-01-27T19:41:10.948Z,-64
2023-01-27T19:43:40.470Z,-64
2023-01-27T19:46:17.849Z,-64
2023-01-27T19:48:46.572Z,-63
2023-01-27T19:51:17.440Z,-64
2023-01-27T19:53:46.579Z,-64
2023-01-27T19:56:21.825Z,-63
2023-01-27T19:58:54.081Z,-64
2023-01-27T20:01:25.680Z,-64
2023-01-27T20:03:55.318Z,-64
2023-01-27T20:06:29.881Z,-64
2023-01-27T20:09:00.420Z,-64
2023-01-27T20:11:41.284Z,-64
2023-01-27T20:14:20.485Z,-64
2023-01-27T20:16:49.923Z,-64
2023-01-27T20:19:18.834Z,-64
2023-01-27T20:21:48.374Z,-64
2023-01-27T20:24:19.717Z,-64
2023-01-27T20:26:49.051Z,-64
2023-01-27T20:29:17.750Z,-64
2023-01-27T20:31:46.773Z,-64
2023-01-27T20:34:15.619Z,-64
2023-01-27T20:36:44.231Z,-63
2023-01-27T20:39:13.109Z,-64
2023-01-27T20:41:41.751Z,-64
2023-01-27T20:44:13.474Z,-63
2023-01-27T20:46:42.269Z,-64
2023-01-27T20:49:11.340Z,-64
2023-01-27T20:51:40.162Z,-64
2023-01-27T20:54:08.896Z,-64
2023-01-27T20:56:37.714Z,-64
2023-01-27T20:59:06.485Z,-64
2023-01-27T21:01:35.737Z,-64
2023-01-27T21:04:04.454Z,-64
2023-01-27T21:06:33.650Z,-64
2023-01-27T21:09:02.717Z,-65
2023-01-27T21:11:31.958Z,-66
2023-01-27T21:14:01.377Z,-65
2023-01-27T21:16:30.056Z,-65
2023-01-27T21:18:58.796Z,-64
2023-01-27T21:21:30.578Z,-65
2023-01-27T21:24:01.273Z,-65
2023-01-27T21:26:29.982Z,-66
2023-01-27T21:28:59.099Z,-65
2023-01-27T21:31:30.595Z,-66
2023-01-27T21:34:01.193Z,-66
2023-01-27T21:36:29.966Z,-66
2023-01-27T21:38:58.891Z,-66
2023-01-27T21:41:45.410Z,-66
2023-01-27T21:44:41.738Z,-65
2023-01-27T21:47:16.984Z,-69
2023-01-27T21:50:03.135Z,-69
2023-01-27T21:52:49.893Z,-69
2023-01-27T21:55:30.651Z,-69
2023-01-27T21:57:59.388Z,-69
2023-01-27T22:00:29.801Z,-69
2023-01-27T22:03:04.548Z,-69
2023-01-27T22:05:35.098Z,-69
2023-01-27T22:08:06.471Z,-69
2023-01-27T22:10:35.368Z,-69
2023-01-27T22:13:05.715Z,-69
2023-01-27T22:15:34.586Z,-69
2023-01-27T22:18:03.167Z,-69
2023-01-27T22:20:31.858Z,-69
2023-01-27T22:23:00.581Z,-70
2023-01-27T22:25:29.196Z,-69
2023-01-27T22:27:57.850Z,-69
2023-01-27T22:30:26.575Z,-69
2023-01-27T22:32:55.213Z,-69
2023-01-27T22:35:23.922Z,-69
2023-01-27T22:37:53.179Z,-69
2023-01-27T22:40:21.854Z,-69
2023-01-27T22:42:51.077Z,-69
2023-01-27T22:45:19.801Z,-69
2023-01-27T22:47:49.605Z,-69
2023-01-27T22:50:18.412Z,-69
2023-01-27T22:52:47.954Z,-69
2023-01-27T22:55:16.900Z,-69
2023-01-27T22:57:47.884Z,-69
2023-01-27T23:00:16.925Z,-69
2023-01-27T23:02:45.548Z,-69
2023-01-27T23:05:14.435Z,-69
2023-01-27T23:07:43.325Z,-69
2023-01-27T23:10:12.249Z,-69
2023-01-27T23:12:40.976Z,-69
2023-01-27T23:15:10.021Z,-69
2023-01-27T23:17:38.782Z,-69
2023-01-27T23:20:08.081Z,-69
2023-01-27T23:22:36.749Z,-69
2023-01-27T23:25:05.660Z,-69
2023-01-27T23:27:35.265Z,-69
2023-01-27T23:30:03.994Z,-69
2023-01-27T23:32:32.691Z,-69
2023-01-27T23:35:01.263Z,-69
2023-01-27T23:37:29.914Z,-69
2023-01-27T23:39:58.506Z,-69
2023-01-27T23:42:27.041Z,-69
2023-01-27T23:44:55.619Z,-69
2023-01-27T23:47:24.270Z,-69
2023-01-27T23:49:52.888Z,-69
2023-01-27T23:52:21.458Z,-69
2023-01-27T23:54:50.166Z,-69
2023-01-27T23:57:19.024Z,-69
2023-01-27T23:59:47.729Z,-69
